sensor_id;sensor_type;location;lat;lon;timestamp;P1;durP1;ratioP1;P2;durP2;ratioP2
26756;SDS011;23848;49.798;10.228;2023-03-18T00:00:14;8.02;;;5.60;;
26756;SDS011;23848;49.798;10.228;2023-03-18T00:02:44;11.02;;;6.03;;
26756;SDS011;23848;49.798;10.228;2023-03-18T00:05:13;8.73;;;5.57;;
26756;SDS011;23848;49.798;10.228;2023-03-18T00:07:43;8.85;;;5.72;;
26756;SDS011;23848;49.798;10.228;2023-03-18T00:10:12;8.02;;;5.40;;
26756;SDS011;23848;49.798;10.228;2023-03-18T00:12:42;9.05;;;5.82;;
26756;SDS011;23848;49.798;10.228;2023-03-18T00:15:11;10.82;;;5.70;;
26756;SDS011;23848;49.798;10.228;2023-03-18T00:17:41;9.40;;;5.75;;
26756;SDS011;23848;49.798;10.228;2023-03-18T00:20:10;6.88;;;3.70;;
26756;SDS011;23848;49.798;10.228;2023-03-18T00:22:39;5.97;;;3.50;;
26756;SDS011;23848;49.798;10.228;2023-03-18T00:25:11;5.45;;;3.25;;
26756;SDS011;23848;49.798;10.228;2023-03-18T00:27:39;4.65;;;2.78;;
26756;SDS011;23848;49.798;10.228;2023-03-18T00:30:08;4.80;;;2.92;;
26756;SDS011;23848;49.798;10.228;2023-03-18T00:32:38;5.72;;;3.25;;
26756;SDS011;23848;49.798;10.228;2023-03-18T00:35:07;6.95;;;3.17;;
26756;SDS011;23848;49.798;10.228;2023-03-18T00:37:36;6.28;;;4.10;;
26756;SDS011;23848;49.798;10.228;2023-03-18T00:40:06;4.30;;;3.22;;
26756;SDS011;23848;49.798;10.228;2023-03-18T00:42:37;4.50;;;3.00;;
26756;SDS011;23848;49.798;10.228;2023-03-18T00:45:13;5.07;;;3.20;;
26756;SDS011;23848;49.798;10.228;2023-03-18T00:47:42;5.57;;;4.15;;
26756;SDS011;23848;49.798;10.228;2023-03-18T00:50:11;6.43;;;3.72;;
26756;SDS011;23848;49.798;10.228;2023-03-18T00:52:40;6.57;;;4.18;;
26756;SDS011;23848;49.798;10.228;2023-03-18T00:55:09;7.93;;;4.38;;
26756;SDS011;23848;49.798;10.228;2023-03-18T00:57:39;7.15;;;4.35;;
26756;SDS011;23848;49.798;10.228;2023-03-18T01:00:08;6.22;;;4.07;;
26756;SDS011;23848;49.798;10.228;2023-03-18T01:02:36;9.40;;;5.18;;
26756;SDS011;23848;49.798;10.228;2023-03-18T01:05:05;7.47;;;4.78;;
26756;SDS011;23848;49.798;10.228;2023-03-18T01:07:33;7.00;;;4.68;;
26756;SDS011;23848;49.798;10.228;2023-03-18T01:10:02;7.20;;;4.30;;
26756;SDS011;23848;49.798;10.228;2023-03-18T01:12:30;6.55;;;4.38;;
26756;SDS011;23848;49.798;10.228;2023-03-18T01:15:00;6.72;;;4.20;;
26756;SDS011;23848;49.798;10.228;2023-03-18T01:17:30;6.05;;;4.18;;
26756;SDS011;23848;49.798;10.228;2023-03-18T01:19:58;6.80;;;4.78;;
26756;SDS011;23848;49.798;10.228;2023-03-18T01:22:27;7.57;;;4.18;;
26756;SDS011;23848;49.798;10.228;2023-03-18T01:24:56;5.93;;;4.15;;
26756;SDS011;23848;49.798;10.228;2023-03-18T01:27:24;6.10;;;4.15;;
26756;SDS011;23848;49.798;10.228;2023-03-18T01:29:53;5.93;;;3.83;;
26756;SDS011;23848;49.798;10.228;2023-03-18T01:32:23;5.68;;;4.22;;
26756;SDS011;23848;49.798;10.228;2023-03-18T01:34:51;7.25;;;4.43;;
26756;SDS011;23848;49.798;10.228;2023-03-18T01:37:20;8.35;;;4.60;;
26756;SDS011;23848;49.798;10.228;2023-03-18T01:39:47;6.68;;;4.63;;
26756;SDS011;23848;49.798;10.228;2023-03-18T01:42:15;6.50;;;4.50;;
26756;SDS011;23848;49.798;10.228;2023-03-18T01:44:45;7.15;;;4.50;;
26756;SDS011;23848;49.798;10.228;2023-03-18T01:47:13;7.47;;;4.82;;
26756;SDS011;23848;49.798;10.228;2023-03-18T01:49:45;6.45;;;4.55;;
26756;SDS011;23848;49.798;10.228;2023-03-18T01:52:16;8.45;;;5.38;;
26756;SDS011;23848;49.798;10.228;2023-03-18T01:54:45;10.32;;;6.07;;
26756;SDS011;23848;49.798;10.228;2023-03-18T01:57:14;9.75;;;5.90;;
26756;SDS011;23848;49.798;10.228;2023-03-18T01:59:44;8.75;;;5.72;;
26756;SDS011;23848;49.798;10.228;2023-03-18T02:02:14;10.73;;;6.97;;
26756;SDS011;23848;49.798;10.228;2023-03-18T02:04:46;9.95;;;6.35;;
26756;SDS011;23848;49.798;10.228;2023-03-18T02:07:16;7.97;;;5.13;;
26756;SDS011;23848;49.798;10.228;2023-03-18T02:09:45;8.15;;;5.57;;
26756;SDS011;23848;49.798;10.228;2023-03-18T02:12:15;9.48;;;6.00;;
26756;SDS011;23848;49.798;10.228;2023-03-18T02:14:43;9.45;;;5.05;;
26756;SDS011;23848;49.798;10.228;2023-03-18T02:17:13;6.95;;;4.50;;
26756;SDS011;23848;49.798;10.228;2023-03-18T02:19:48;7.45;;;4.60;;
26756;SDS011;23848;49.798;10.228;2023-03-18T02:22:21;7.47;;;5.10;;
26756;SDS011;23848;49.798;10.228;2023-03-18T02:24:53;6.07;;;4.43;;
26756;SDS011;23848;49.798;10.228;2023-03-18T02:27:24;6.75;;;4.25;;
26756;SDS011;23848;49.798;10.228;2023-03-18T02:29:53;6.70;;;4.22;;
26756;SDS011;23848;49.798;10.228;2023-03-18T02:32:23;7.68;;;4.68;;
26756;SDS011;23848;49.798;10.228;2023-03-18T02:34:53;7.53;;;4.25;;
26756;SDS011;23848;49.798;10.228;2023-03-18T02:37:21;8.73;;;4.80;;
26756;SDS011;23848;49.798;10.228;2023-03-18T02:39:50;7.60;;;4.57;;
26756;SDS011;23848;49.798;10.228;2023-03-18T02:42:27;6.55;;;4.57;;
26756;SDS011;23848;49.798;10.228;2023-03-18T02:44:55;8.55;;;4.80;;
26756;SDS011;23848;49.798;10.228;2023-03-18T02:47:25;5.95;;;4.43;;
26756;SDS011;23848;49.798;10.228;2023-03-18T02:49:55;6.45;;;4.53;;
26756;SDS011;23848;49.798;10.228;2023-03-18T02:52:23;7.15;;;5.10;;
26756;SDS011;23848;49.798;10.228;2023-03-18T02:54:51;7.85;;;4.65;;
26756;SDS011;23848;49.798;10.228;2023-03-18T02:57:24;8.23;;;5.30;;
26756;SDS011;23848;49.798;10.228;2023-03-18T02:59:53;6.80;;;4.15;;
26756;SDS011;23848;49.798;10.228;2023-03-18T03:02:22;7.63;;;5.03;;
26756;SDS011;23848;49.798;10.228;2023-03-18T03:04:50;5.78;;;4.28;;
26756;SDS011;23848;49.798;10.228;2023-03-18T03:07:19;6.45;;;4.35;;
26756;SDS011;23848;49.798;10.228;2023-03-18T03:09:47;6.28;;;4.63;;
26756;SDS011;23848;49.798;10.228;2023-03-18T03:12:16;6.03;;;4.13;;
26756;SDS011;23848;49.798;10.228;2023-03-18T03:14:44;5.45;;;4.22;;
26756;SDS011;23848;49.798;10.228;2023-03-18T03:17:14;6.63;;;4.18;;
26756;SDS011;23848;49.798;10.228;2023-03-18T03:19:42;8.55;;;4.68;;
26756;SDS011;23848;49.798;10.228;2023-03-18T03:22:11;5.07;;;3.78;;
26756;SDS011;23848;49.798;10.228;2023-03-18T03:24:39;7.13;;;4.78;;
26756;SDS011;23848;49.798;10.228;2023-03-18T03:27:08;6.90;;;4.70;;
26756;SDS011;23848;49.798;10.228;2023-03-18T03:29:37;6.80;;;4.68;;
26756;SDS011;23848;49.798;10.228;2023-03-18T03:32:06;7.85;;;4.40;;
26756;SDS011;23848;49.798;10.228;2023-03-18T03:34:35;6.03;;;4.13;;
26756;SDS011;23848;49.798;10.228;2023-03-18T03:37:04;6.25;;;4.13;;
26756;SDS011;23848;49.798;10.228;2023-03-18T03:39:32;6.45;;;4.10;;
26756;SDS011;23848;49.798;10.228;2023-03-18T03:42:01;5.68;;;4.20;;
26756;SDS011;23848;49.798;10.228;2023-03-18T03:44:29;6.90;;;4.53;;
26756;SDS011;23848;49.798;10.228;2023-03-18T03:46:57;6.65;;;4.70;;
26756;SDS011;23848;49.798;10.228;2023-03-18T03:49:26;6.00;;;4.25;;
26756;SDS011;23848;49.798;10.228;2023-03-18T03:51:56;5.57;;;3.85;;
26756;SDS011;23848;49.798;10.228;2023-03-18T03:54:24;6.43;;;3.65;;
26756;SDS011;23848;49.798;10.228;2023-03-18T03:56:52;6.72;;;3.70;;
26756;SDS011;23848;49.798;10.228;2023-03-18T03:59:22;6.30;;;4.47;;
26756;SDS011;23848;49.798;10.228;2023-03-18T04:01:51;8.00;;;4.30;;
26756;SDS011;23848;49.798;10.228;2023-03-18T04:04:19;5.63;;;3.75;;
26756;SDS011;23848;49.798;10.228;2023-03-18T04:06:47;7.65;;;4.20;;
26756;SDS011;23848;49.798;10.228;2023-03-18T04:09:17;5.32;;;3.90;;
26756;SDS011;23848;49.798;10.228;2023-03-18T04:11:45;6.85;;;4.57;;
26756;SDS011;23848;49.798;10.228;2023-03-18T04:14:14;5.97;;;4.28;;
26756;SDS011;23848;49.798;10.228;2023-03-18T04:16:42;5.30;;;4.00;;
26756;SDS011;23848;49.798;10.228;2023-03-18T04:19:11;5.65;;;4.13;;
26756;SDS011;23848;49.798;10.228;2023-03-18T04:21:39;7.00;;;4.07;;
26756;SDS011;23848;49.798;10.228;2023-03-18T04:24:07;5.15;;;3.47;;
26756;SDS011;23848;49.798;10.228;2023-03-18T04:26:39;5.00;;;3.75;;
26756;SDS011;23848;49.798;10.228;2023-03-18T04:29:07;5.57;;;3.75;;
26756;SDS011;23848;49.798;10.228;2023-03-18T04:31:35;7.25;;;4.07;;
26756;SDS011;23848;49.798;10.228;2023-03-18T04:34:04;8.10;;;3.97;;
26756;SDS011;23848;49.798;10.228;2023-03-18T04:36:32;5.72;;;3.88;;
26756;SDS011;23848;49.798;10.228;2023-03-18T04:39:01;7.70;;;4.25;;
26756;SDS011;23848;49.798;10.228;2023-03-18T04:41:29;7.22;;;4.30;;
26756;SDS011;23848;49.798;10.228;2023-03-18T04:43:59;6.00;;;3.92;;
26756;SDS011;23848;49.798;10.228;2023-03-18T04:46:27;5.47;;;3.60;;
26756;SDS011;23848;49.798;10.228;2023-03-18T04:48:57;7.38;;;4.22;;
26756;SDS011;23848;49.798;10.228;2023-03-18T04:51:25;5.90;;;4.18;;
26756;SDS011;23848;49.798;10.228;2023-03-18T04:53:54;5.95;;;4.18;;
26756;SDS011;23848;49.798;10.228;2023-03-18T04:56:25;7.68;;;4.38;;
26756;SDS011;23848;49.798;10.228;2023-03-18T04:58:53;6.10;;;3.85;;
26756;SDS011;23848;49.798;10.228;2023-03-18T05:01:23;5.57;;;4.05;;
26756;SDS011;23848;49.798;10.228;2023-03-18T05:03:51;6.38;;;4.82;;
26756;SDS011;23848;49.798;10.228;2023-03-18T05:06:20;6.72;;;4.40;;
26756;SDS011;23848;49.798;10.228;2023-03-18T05:08:49;6.10;;;4.13;;
26756;SDS011;23848;49.798;10.228;2023-03-18T05:11:18;6.53;;;4.57;;
26756;SDS011;23848;49.798;10.228;2023-03-18T05:13:47;7.20;;;4.43;;
26756;SDS011;23848;49.798;10.228;2023-03-18T05:16:15;6.65;;;4.72;;
26756;SDS011;23848;49.798;10.228;2023-03-18T05:18:45;5.88;;;4.28;;
26756;SDS011;23848;49.798;10.228;2023-03-18T05:21:13;7.13;;;4.57;;
26756;SDS011;23848;49.798;10.228;2023-03-18T05:23:42;7.57;;;4.35;;
26756;SDS011;23848;49.798;10.228;2023-03-18T05:26:10;6.60;;;4.75;;
26756;SDS011;23848;49.798;10.228;2023-03-18T05:28:38;6.68;;;5.00;;
26756;SDS011;23848;49.798;10.228;2023-03-18T05:31:07;6.18;;;4.07;;
26756;SDS011;23848;49.798;10.228;2023-03-18T05:33:35;6.95;;;4.72;;
26756;SDS011;23848;49.798;10.228;2023-03-18T05:36:05;7.50;;;4.82;;
26756;SDS011;23848;49.798;10.228;2023-03-18T05:38:34;7.95;;;5.63;;
26756;SDS011;23848;49.798;10.228;2023-03-18T05:41:03;8.13;;;5.55;;
26756;SDS011;23848;49.798;10.228;2023-03-18T05:43:31;7.47;;;5.95;;
26756;SDS011;23848;49.798;10.228;2023-03-18T05:46:00;8.95;;;5.85;;
26756;SDS011;23848;49.798;10.228;2023-03-18T05:48:29;9.23;;;6.03;;
26756;SDS011;23848;49.798;10.228;2023-03-18T05:50:58;8.85;;;5.95;;
26756;SDS011;23848;49.798;10.228;2023-03-18T05:53:28;8.63;;;5.80;;
26756;SDS011;23848;49.798;10.228;2023-03-18T05:55:57;9.48;;;5.65;;
26756;SDS011;23848;49.798;10.228;2023-03-18T05:58:25;8.68;;;5.97;;
26756;SDS011;23848;49.798;10.228;2023-03-18T06:00:56;11.07;;;6.80;;
26756;SDS011;23848;49.798;10.228;2023-03-18T06:03:27;10.45;;;7.38;;
26756;SDS011;23848;49.798;10.228;2023-03-18T06:05:58;10.18;;;7.22;;
26756;SDS011;23848;49.798;10.228;2023-03-18T06:08:28;9.98;;;7.20;;
26756;SDS011;23848;49.798;10.228;2023-03-18T06:10:57;10.27;;;6.40;;
26756;SDS011;23848;49.798;10.228;2023-03-18T06:13:26;6.82;;;5.00;;
26756;SDS011;23848;49.798;10.228;2023-03-18T06:15:55;7.47;;;5.18;;
26756;SDS011;23848;49.798;10.228;2023-03-18T06:18:24;8.18;;;6.38;;
26756;SDS011;23848;49.798;10.228;2023-03-18T06:20:53;9.23;;;6.75;;
26756;SDS011;23848;49.798;10.228;2023-03-18T06:23:21;6.95;;;5.15;;
26756;SDS011;23848;49.798;10.228;2023-03-18T06:25:51;7.57;;;5.60;;
26756;SDS011;23848;49.798;10.228;2023-03-18T06:28:19;6.50;;;4.95;;
26756;SDS011;23848;49.798;10.228;2023-03-18T06:30:47;8.18;;;5.30;;
26756;SDS011;23848;49.798;10.228;2023-03-18T06:33:16;6.82;;;5.45;;
26756;SDS011;23848;49.798;10.228;2023-03-18T06:35:46;8.07;;;5.72;;
26756;SDS011;23848;49.798;10.228;2023-03-18T06:38:14;7.53;;;5.45;;
26756;SDS011;23848;49.798;10.228;2023-03-18T06:40:43;7.88;;;5.60;;
26756;SDS011;23848;49.798;10.228;2023-03-18T06:43:13;12.73;;;7.65;;
26756;SDS011;23848;49.798;10.228;2023-03-18T06:45:42;22.75;;;12.70;;
26756;SDS011;23848;49.798;10.228;2023-03-18T06:48:11;10.18;;;7.63;;
26756;SDS011;23848;49.798;10.228;2023-03-18T06:50:39;12.77;;;9.40;;
26756;SDS011;23848;49.798;10.228;2023-03-18T06:53:09;10.18;;;7.25;;
26756;SDS011;23848;49.798;10.228;2023-03-18T06:55:38;10.15;;;6.43;;
26756;SDS011;23848;49.798;10.228;2023-03-18T06:58:06;9.63;;;6.65;;
26756;SDS011;23848;49.798;10.228;2023-03-18T07:00:37;19.05;;;12.88;;
26756;SDS011;23848;49.798;10.228;2023-03-18T07:03:06;25.00;;;15.52;;
26756;SDS011;23848;49.798;10.228;2023-03-18T07:05:35;22.73;;;14.38;;
26756;SDS011;23848;49.798;10.228;2023-03-18T07:08:04;19.42;;;12.40;;
26756;SDS011;23848;49.798;10.228;2023-03-18T07:10:33;15.88;;;11.27;;
26756;SDS011;23848;49.798;10.228;2023-03-18T07:13:01;14.82;;;9.70;;
26756;SDS011;23848;49.798;10.228;2023-03-18T07:15:30;11.40;;;8.05;;
26756;SDS011;23848;49.798;10.228;2023-03-18T07:18:00;13.32;;;8.13;;
26756;SDS011;23848;49.798;10.228;2023-03-18T07:20:30;11.05;;;8.38;;
26756;SDS011;23848;49.798;10.228;2023-03-18T07:22:58;11.35;;;8.10;;
26756;SDS011;23848;49.798;10.228;2023-03-18T07:25:27;15.65;;;10.75;;
26756;SDS011;23848;49.798;10.228;2023-03-18T07:27:56;15.32;;;10.75;;
26756;SDS011;23848;49.798;10.228;2023-03-18T07:30:25;12.30;;;8.90;;
26756;SDS011;23848;49.798;10.228;2023-03-18T07:32:54;10.20;;;7.40;;
26756;SDS011;23848;49.798;10.228;2023-03-18T07:35:24;8.93;;;7.38;;
26756;SDS011;23848;49.798;10.228;2023-03-18T07:37:53;11.52;;;7.20;;
26756;SDS011;23848;49.798;10.228;2023-03-18T07:40:22;14.68;;;9.77;;
26756;SDS011;23848;49.798;10.228;2023-03-18T07:42:50;27.63;;;16.88;;
26756;SDS011;23848;49.798;10.228;2023-03-18T07:45:18;17.48;;;12.93;;
26756;SDS011;23848;49.798;10.228;2023-03-18T07:47:47;14.35;;;10.70;;
26756;SDS011;23848;49.798;10.228;2023-03-18T07:50:17;12.50;;;8.98;;
26756;SDS011;23848;49.798;10.228;2023-03-18T07:52:49;16.15;;;12.45;;
26756;SDS011;23848;49.798;10.228;2023-03-18T07:55:18;13.43;;;8.18;;
26756;SDS011;23848;49.798;10.228;2023-03-18T07:57:46;10.68;;;7.63;;
26756;SDS011;23848;49.798;10.228;2023-03-18T08:00:16;9.73;;;7.15;;
26756;SDS011;23848;49.798;10.228;2023-03-18T08:02:44;9.25;;;7.30;;
26756;SDS011;23848;49.798;10.228;2023-03-18T08:05:15;13.20;;;7.53;;
26756;SDS011;23848;49.798;10.228;2023-03-18T08:07:44;11.07;;;7.85;;
26756;SDS011;23848;49.798;10.228;2023-03-18T08:10:16;10.63;;;7.20;;
26756;SDS011;23848;49.798;10.228;2023-03-18T08:12:45;9.88;;;7.50;;
26756;SDS011;23848;49.798;10.228;2023-03-18T08:17:47;9.07;;;6.28;;
26756;SDS011;23848;49.798;10.228;2023-03-18T08:20:15;9.30;;;6.03;;
26756;SDS011;23848;49.798;10.228;2023-03-18T08:22:44;10.05;;;6.07;;
26756;SDS011;23848;49.798;10.228;2023-03-18T08:25:13;7.50;;;5.13;;
26756;SDS011;23848;49.798;10.228;2023-03-18T08:27:42;8.95;;;5.40;;
26756;SDS011;23848;49.798;10.228;2023-03-18T08:30:11;6.90;;;5.03;;
26756;SDS011;23848;49.798;10.228;2023-03-18T08:32:40;7.93;;;4.45;;
26756;SDS011;23848;49.798;10.228;2023-03-18T08:35:08;6.18;;;4.20;;
26756;SDS011;23848;49.798;10.228;2023-03-18T08:37:37;6.50;;;4.20;;
26756;SDS011;23848;49.798;10.228;2023-03-18T08:40:06;5.75;;;3.92;;
26756;SDS011;23848;49.798;10.228;2023-03-18T08:42:35;6.30;;;4.35;;
26756;SDS011;23848;49.798;10.228;2023-03-18T08:45:05;5.65;;;3.72;;
26756;SDS011;23848;49.798;10.228;2023-03-18T08:47:34;6.72;;;4.30;;
26756;SDS011;23848;49.798;10.228;2023-03-18T08:50:02;5.70;;;3.67;;
26756;SDS011;23848;49.798;10.228;2023-03-18T08:52:31;7.70;;;4.20;;
26756;SDS011;23848;49.798;10.228;2023-03-18T08:54:59;7.47;;;3.75;;
26756;SDS011;23848;49.798;10.228;2023-03-18T08:57:28;6.68;;;3.67;;
26756;SDS011;23848;49.798;10.228;2023-03-18T08:59:57;5.20;;;2.97;;
26756;SDS011;23848;49.798;10.228;2023-03-18T09:02:26;4.32;;;2.67;;
26756;SDS011;23848;49.798;10.228;2023-03-18T09:04:57;5.07;;;2.78;;
26756;SDS011;23848;49.798;10.228;2023-03-18T09:07:35;4.93;;;2.72;;
26756;SDS011;23848;49.798;10.228;2023-03-18T09:10:04;4.97;;;2.72;;
26756;SDS011;23848;49.798;10.228;2023-03-18T09:12:32;4.65;;;2.63;;
26756;SDS011;23848;49.798;10.228;2023-03-18T09:15:02;5.43;;;2.92;;
26756;SDS011;23848;49.798;10.228;2023-03-18T09:17:35;5.07;;;2.45;;
26756;SDS011;23848;49.798;10.228;2023-03-18T09:20:25;4.28;;;2.78;;
26756;SDS011;23848;49.798;10.228;2023-03-18T09:22:57;5.53;;;2.80;;
26756;SDS011;23848;49.798;10.228;2023-03-18T09:25:26;6.95;;;2.70;;
26756;SDS011;23848;49.798;10.228;2023-03-18T09:27:54;3.70;;;2.38;;
26756;SDS011;23848;49.798;10.228;2023-03-18T09:30:23;4.55;;;2.47;;
26756;SDS011;23848;49.798;10.228;2023-03-18T09:32:54;3.25;;;2.10;;
26756;SDS011;23848;49.798;10.228;2023-03-18T09:35:23;4.07;;;2.25;;
26756;SDS011;23848;49.798;10.228;2023-03-18T09:37:54;4.45;;;2.45;;
26756;SDS011;23848;49.798;10.228;2023-03-18T09:40:23;3.75;;;2.35;;
26756;SDS011;23848;49.798;10.228;2023-03-18T09:42:54;4.95;;;2.25;;
26756;SDS011;23848;49.798;10.228;2023-03-18T09:45:30;3.40;;;2.13;;
26756;SDS011;23848;49.798;10.228;2023-03-18T09:48:15;4.95;;;1.98;;
26756;SDS011;23848;49.798;10.228;2023-03-18T09:50:47;3.60;;;2.00;;
26756;SDS011;23848;49.798;10.228;2023-03-18T09:53:19;4.95;;;1.95;;
26756;SDS011;23848;49.798;10.228;2023-03-18T09:55:49;4.05;;;1.90;;
26756;SDS011;23848;49.798;10.228;2023-03-18T09:58:22;4.03;;;1.80;;
26756;SDS011;23848;49.798;10.228;2023-03-18T10:00:52;3.78;;;1.75;;
26756;SDS011;23848;49.798;10.228;2023-03-18T10:03:28;3.47;;;1.92;;
26756;SDS011;23848;49.798;10.228;2023-03-18T10:06:00;3.70;;;1.80;;
26756;SDS011;23848;49.798;10.228;2023-03-18T10:08:34;3.28;;;1.58;;
26756;SDS011;23848;49.798;10.228;2023-03-18T10:11:05;3.95;;;1.63;;
26756;SDS011;23848;49.798;10.228;2023-03-18T10:13:37;4.28;;;1.60;;
26756;SDS011;23848;49.798;10.228;2023-03-18T10:16:12;4.72;;;1.90;;
26756;SDS011;23848;49.798;10.228;2023-03-18T10:18:46;4.73;;;2.00;;
26756;SDS011;23848;49.798;10.228;2023-03-18T10:21:16;3.15;;;1.48;;
26756;SDS011;23848;49.798;10.228;2023-03-18T10:23:48;4.35;;;1.65;;
26756;SDS011;23848;49.798;10.228;2023-03-18T10:26:23;6.18;;;1.77;;
26756;SDS011;23848;49.798;10.228;2023-03-18T10:28:57;4.15;;;1.50;;
26756;SDS011;23848;49.798;10.228;2023-03-18T10:31:31;4.18;;;1.88;;
26756;SDS011;23848;49.798;10.228;2023-03-18T10:34:05;5.15;;;1.83;;
26756;SDS011;23848;49.798;10.228;2023-03-18T10:36:37;3.30;;;1.80;;
26756;SDS011;23848;49.798;10.228;2023-03-18T10:39:10;2.30;;;1.38;;
26756;SDS011;23848;49.798;10.228;2023-03-18T10:41:40;3.65;;;1.50;;
26756;SDS011;23848;49.798;10.228;2023-03-18T10:44:14;2.83;;;1.50;;
26756;SDS011;23848;49.798;10.228;2023-03-18T10:46:44;3.00;;;1.30;;
26756;SDS011;23848;49.798;10.228;2023-03-18T10:49:15;3.35;;;1.30;;
26756;SDS011;23848;49.798;10.228;2023-03-18T10:51:45;3.33;;;1.83;;
26756;SDS011;23848;49.798;10.228;2023-03-18T10:54:18;2.95;;;1.27;;
26756;SDS011;23848;49.798;10.228;2023-03-18T10:56:48;3.75;;;1.58;;
26756;SDS011;23848;49.798;10.228;2023-03-18T10:59:18;3.38;;;1.60;;
26756;SDS011;23848;49.798;10.228;2023-03-18T11:01:49;2.65;;;1.30;;
26756;SDS011;23848;49.798;10.228;2023-03-18T11:04:20;4.53;;;1.60;;
26756;SDS011;23848;49.798;10.228;2023-03-18T11:06:50;5.05;;;1.85;;
26756;SDS011;23848;49.798;10.228;2023-03-18T11:09:20;4.30;;;1.92;;
26756;SDS011;23848;49.798;10.228;2023-03-18T11:11:49;3.78;;;1.40;;
26756;SDS011;23848;49.798;10.228;2023-03-18T11:16:55;2.95;;;1.35;;
26756;SDS011;23848;49.798;10.228;2023-03-18T11:19:29;2.50;;;1.30;;
26756;SDS011;23848;49.798;10.228;2023-03-18T11:21:59;2.35;;;1.40;;
26756;SDS011;23848;49.798;10.228;2023-03-18T11:24:31;3.33;;;1.48;;
26756;SDS011;23848;49.798;10.228;2023-03-18T11:27:10;4.07;;;1.40;;
26756;SDS011;23848;49.798;10.228;2023-03-18T11:29:53;3.15;;;1.50;;
26756;SDS011;23848;49.798;10.228;2023-03-18T11:32:23;3.10;;;1.50;;
26756;SDS011;23848;49.798;10.228;2023-03-18T11:34:54;4.30;;;1.67;;
26756;SDS011;23848;49.798;10.228;2023-03-18T11:37:28;3.80;;;1.25;;
26756;SDS011;23848;49.798;10.228;2023-03-18T11:43:00;4.32;;;1.50;;
26756;SDS011;23848;49.798;10.228;2023-03-18T11:45:33;3.63;;;2.00;;
26756;SDS011;23848;49.798;10.228;2023-03-18T11:48:03;3.60;;;1.58;;
26756;SDS011;23848;49.798;10.228;2023-03-18T11:50:36;3.55;;;1.85;;
26756;SDS011;23848;49.798;10.228;2023-03-18T11:53:08;4.97;;;2.13;;
26756;SDS011;23848;49.798;10.228;2023-03-18T11:55:38;4.47;;;2.25;;
26756;SDS011;23848;49.798;10.228;2023-03-18T12:00:57;6.03;;;2.53;;
26756;SDS011;23848;49.798;10.228;2023-03-18T12:06:16;4.65;;;1.55;;
26756;SDS011;23848;49.798;10.228;2023-03-18T12:08:52;3.10;;;1.50;;
26756;SDS011;23848;49.798;10.228;2023-03-18T12:11:25;3.42;;;1.48;;
26756;SDS011;23848;49.798;10.228;2023-03-18T12:13:58;3.95;;;1.65;;
26756;SDS011;23848;49.798;10.228;2023-03-18T12:16:37;4.20;;;1.30;;
26756;SDS011;23848;49.798;10.228;2023-03-18T12:24:50;3.58;;;1.90;;
26756;SDS011;23848;49.798;10.228;2023-03-18T12:27:24;4.35;;;1.30;;
26756;SDS011;23848;49.798;10.228;2023-03-18T12:29:58;3.50;;;1.38;;
26756;SDS011;23848;49.798;10.228;2023-03-18T12:32:28;3.88;;;1.58;;
26756;SDS011;23848;49.798;10.228;2023-03-18T12:35:15;3.60;;;1.67;;
26756;SDS011;23848;49.798;10.228;2023-03-18T12:38:01;2.67;;;1.45;;
26756;SDS011;23848;49.798;10.228;2023-03-18T12:40:35;3.70;;;1.42;;
26756;SDS011;23848;49.798;10.228;2023-03-18T12:43:17;6.10;;;1.60;;
26756;SDS011;23848;49.798;10.228;2023-03-18T12:45:51;2.97;;;1.55;;
26756;SDS011;23848;49.798;10.228;2023-03-18T12:48:31;2.45;;;1.35;;
26756;SDS011;23848;49.798;10.228;2023-03-18T12:51:10;5.40;;;1.58;;
26756;SDS011;23848;49.798;10.228;2023-03-18T12:53:41;3.60;;;1.25;;
26756;SDS011;23848;49.798;10.228;2023-03-18T12:56:14;3.85;;;1.38;;
26756;SDS011;23848;49.798;10.228;2023-03-18T12:58:44;2.58;;;1.10;;
26756;SDS011;23848;49.798;10.228;2023-03-18T13:01:16;2.60;;;1.10;;
26756;SDS011;23848;49.798;10.228;2023-03-18T13:03:48;3.33;;;1.33;;
26756;SDS011;23848;49.798;10.228;2023-03-18T13:06:19;5.78;;;1.40;;
26756;SDS011;23848;49.798;10.228;2023-03-18T13:08:55;4.35;;;1.60;;
26756;SDS011;23848;49.798;10.228;2023-03-18T13:11:33;2.67;;;1.10;;
26756;SDS011;23848;49.798;10.228;2023-03-18T13:14:06;3.85;;;1.40;;
26756;SDS011;23848;49.798;10.228;2023-03-18T13:16:40;4.05;;;1.48;;
26756;SDS011;23848;49.798;10.228;2023-03-18T13:19:09;1.92;;;1.08;;
26756;SDS011;23848;49.798;10.228;2023-03-18T13:21:41;3.40;;;1.40;;
26756;SDS011;23848;49.798;10.228;2023-03-18T13:24:18;4.22;;;1.25;;
26756;SDS011;23848;49.798;10.228;2023-03-18T13:27:03;2.22;;;1.17;;
26756;SDS011;23848;49.798;10.228;2023-03-18T13:29:38;2.97;;;1.48;;
26756;SDS011;23848;49.798;10.228;2023-03-18T13:32:17;2.33;;;1.33;;
26756;SDS011;23848;49.798;10.228;2023-03-18T13:34:52;2.92;;;1.25;;
26756;SDS011;23848;49.798;10.228;2023-03-18T13:37:30;3.08;;;1.40;;
26756;SDS011;23848;49.798;10.228;2023-03-18T13:42:56;4.80;;;1.33;;
26756;SDS011;23848;49.798;10.228;2023-03-18T13:45:29;3.65;;;1.40;;
26756;SDS011;23848;49.798;10.228;2023-03-18T13:47:59;2.45;;;1.30;;
26756;SDS011;23848;49.798;10.228;2023-03-18T13:50:30;2.85;;;1.30;;
26756;SDS011;23848;49.798;10.228;2023-03-18T13:53:02;7.75;;;1.63;;
26756;SDS011;23848;49.798;10.228;2023-03-18T13:55:32;2.47;;;1.23;;
26756;SDS011;23848;49.798;10.228;2023-03-18T13:58:16;3.75;;;1.23;;
26756;SDS011;23848;49.798;10.228;2023-03-18T14:03:29;2.25;;;1.30;;
26756;SDS011;23848;49.798;10.228;2023-03-18T14:08:47;3.80;;;1.10;;
26756;SDS011;23848;49.798;10.228;2023-03-18T14:17:20;3.20;;;1.45;;
26756;SDS011;23848;49.798;10.228;2023-03-18T14:19:54;3.13;;;1.67;;
26756;SDS011;23848;49.798;10.228;2023-03-18T14:22:24;5.35;;;2.13;;
26756;SDS011;23848;49.798;10.228;2023-03-18T14:27:43;3.35;;;1.60;;
26756;SDS011;23848;49.798;10.228;2023-03-18T14:33:26;3.25;;;1.33;;
26756;SDS011;23848;49.798;10.228;2023-03-18T14:38:44;3.78;;;1.25;;
26756;SDS011;23848;49.798;10.228;2023-03-18T14:41:20;3.03;;;1.20;;
26756;SDS011;23848;49.798;10.228;2023-03-18T14:43:57;2.35;;;1.10;;
26756;SDS011;23848;49.798;10.228;2023-03-18T14:46:30;3.78;;;1.00;;
26756;SDS011;23848;49.798;10.228;2023-03-18T14:49:08;4.65;;;1.65;;
26756;SDS011;23848;49.798;10.228;2023-03-18T14:54:57;1.65;;;0.88;;
26756;SDS011;23848;49.798;10.228;2023-03-18T14:57:26;2.75;;;1.20;;
26756;SDS011;23848;49.798;10.228;2023-03-18T14:59:56;2.75;;;0.90;;
26756;SDS011;23848;49.798;10.228;2023-03-18T15:02:26;3.63;;;1.33;;
26756;SDS011;23848;49.798;10.228;2023-03-18T15:04:57;2.58;;;1.30;;
26756;SDS011;23848;49.798;10.228;2023-03-18T15:07:30;2.97;;;1.10;;
26756;SDS011;23848;49.798;10.228;2023-03-18T15:10:02;2.95;;;1.00;;
26756;SDS011;23848;49.798;10.228;2023-03-18T15:12:31;6.25;;;1.20;;
26756;SDS011;23848;49.798;10.228;2023-03-18T15:15:00;2.03;;;1.02;;
26756;SDS011;23848;49.798;10.228;2023-03-18T15:17:32;4.57;;;1.17;;
26756;SDS011;23848;49.798;10.228;2023-03-18T15:20:27;4.40;;;1.45;;
26756;SDS011;23848;49.798;10.228;2023-03-18T15:22:55;2.65;;;1.20;;
26756;SDS011;23848;49.798;10.228;2023-03-18T15:25:24;2.58;;;1.20;;
26756;SDS011;23848;49.798;10.228;2023-03-18T15:27:53;2.88;;;1.17;;
26756;SDS011;23848;49.798;10.228;2023-03-18T15:30:22;3.75;;;1.50;;
26756;SDS011;23848;49.798;10.228;2023-03-18T15:33:00;4.47;;;1.47;;
26756;SDS011;23848;49.798;10.228;2023-03-18T15:35:33;3.90;;;1.63;;
26756;SDS011;23848;49.798;10.228;2023-03-18T15:38:05;3.80;;;1.27;;